TimeCDT,TemperatureF,Dew PointF,Humidity,Sea Level PressureIn,VisibilityMPH,Wind Direction,Wind SpeedMPH,Gust SpeedMPH,PrecipitationIn,Events,Conditions,WindDirDegrees,DateUTC
12:08 AM,57.0,45.1,64,-9999,-9999.0,South,9.2,-,N/A,,Unknown,180,2012-10-03 05:08:00
12:28 AM,57.0,44.1,62,-9999,-9999.0,South,9.2,-,N/A,,Unknown,180,2012-10-03 05:28:00
12:48 AM,55.9,45.1,67,-9999,-9999.0,South,8.1,-,N/A,,Unknown,180,2012-10-03 05:48:00
1:08 AM,55.0,44.1,67,-9999,-9999.0,South,10.4,-,N/A,,Unknown,180,2012-10-03 06:08:00
1:28 AM,55.0,44.1,67,-9999,-9999.0,South,6.9,-,N/A,,Unknown,180,2012-10-03 06:28:00
1:48 AM,54.0,45.1,72,-9999,-9999.0,South,6.9,-,N/A,,Unknown,180,2012-10-03 06:48:00
2:08 AM,54.0,44.1,69,-9999,-9999.0,South,9.2,-,N/A,,Unknown,180,2012-10-03 07:08:00
2:28 AM,54.0,44.1,69,-9999,-9999.0,South,8.1,-,N/A,,Unknown,180,2012-10-03 07:28:00
2:48 AM,53.1,44.1,71,-9999,-9999.0,South,5.8,-,N/A,,Unknown,190,2012-10-03 07:48:00
3:08 AM,53.1,44.1,71,-9999,-9999.0,SSW,5.8,-,N/A,,Unknown,210,2012-10-03 08:08:00
3:28 AM,53.1,44.1,71,-9999,-9999.0,SSW,4.6,-,N/A,,Unknown,200,2012-10-03 08:28:00
3:48 AM,52.0,43.2,72,-9999,-9999.0,SSW,6.9,-,N/A,,Unknown,210,2012-10-03 08:48:00
4:08 AM,51.1,43.2,74,-9999,-9999.0,SSW,4.6,-,N/A,,Unknown,210,2012-10-03 09:08:00
4:28 AM,51.1,42.1,71,-9999,-9999.0,SSW,8.1,-,N/A,,Unknown,210,2012-10-03 09:28:00
4:48 AM,51.8,44.6,76,-9999,-9999.0,SW,6.9,-,N/A,,Unknown,220,2012-10-03 09:48:00
5:08 AM,52.0,44.1,74,-9999,-9999.0,SW,6.9,-,N/A,,Unknown,230,2012-10-03 10:08:00
5:28 AM,51.1,42.1,71,-9999,-9999.0,SW,8.1,-,N/A,,Unknown,220,2012-10-03 10:28:00
5:48 AM,53.1,43.2,69,-9999,-9999.0,SW,10.4,-,N/A,,Unknown,220,2012-10-03 10:48:00
6:08 AM,54.0,43.2,67,-9999,-9999.0,SW,10.4,-,N/A,,Unknown,230,2012-10-03 11:08:00
6:28 AM,53.1,44.1,71,-9999,-9999.0,SW,10.4,-,N/A,,Unknown,230,2012-10-03 11:28:00
6:48 AM,53.1,42.1,66,-9999,-9999.0,SW,11.5,-,N/A,,Unknown,220,2012-10-03 11:48:00
7:08 AM,53.1,43.2,69,-9999,-9999.0,SW,10.4,-,N/A,,Unknown,220,2012-10-03 12:08:00
7:28 AM,53.1,42.1,66,-9999,-9999.0,SW,10.4,-,N/A,,Unknown,220,2012-10-03 12:28:00
7:48 AM,53.1,42.1,66,-9999,-9999.0,SSW,9.2,-,N/A,,Unknown,210,2012-10-03 12:48:00
8:08 AM,54.0,43.2,67,-9999,-9999.0,SW,10.4,-,N/A,,Unknown,220,2012-10-03 13:08:00
8:28 AM,55.0,45.1,69,-9999,-9999.0,SW,9.2,-,N/A,,Unknown,230,2012-10-03 13:28:00
8:48 AM,55.9,46.0,69,-9999,-9999.0,SW,8.1,-,N/A,,Unknown,230,2012-10-03 13:48:00
9:08 AM,57.9,47.1,67,-9999,-9999.0,SW,8.1,-,N/A,,Unknown,230,2012-10-03 14:08:00
9:28 AM,60.1,47.1,62,-9999,-9999.0,SW,9.2,-,N/A,,Unknown,230,2012-10-03 14:28:00
9:48 AM,63.0,47.1,56,-9999,-9999.0,WSW,10.4,-,N/A,,Unknown,240,2012-10-03 14:48:00
10:08 AM,66.0,49.1,54,-9999,-9999.0,WSW,5.8,-,N/A,,Unknown,250,2012-10-03 15:08:00
10:48 AM,71.1,48.0,44,-9999,-9999.0,SW,4.6,-,N/A,,Unknown,230,2012-10-03 15:48:00
11:08 AM,73.9,48.0,40,-9999,-9999.0,SSW,4.6,-,N/A,,Unknown,210,2012-10-03 16:08:00
11:28 AM,75.0,48.0,38,-9999,-9999.0,WSW,5.8,-,N/A,,Unknown,250,2012-10-03 16:28:00
11:50 AM,77.0,48.0,36,-9999,-9999.0,SW,3.5,-,N/A,,Unknown,220,2012-10-03 16:50:00
12:08 PM,79.0,49.1,35,-9999,-9999.0,South,2.3,-,N/A,,Unknown,180,2012-10-03 17:08:00
12:28 PM,81.0,49.1,33,-9999,-9999.0,ESE,1.2,-,N/A,,Unknown,120,2012-10-03 17:28:00
12:50 PM,81.0,48.0,31,-9999,-9999.0,SSE,12.7,-,N/A,,Unknown,160,2012-10-03 17:50:00
1:08 PM,82.0,48.0,30,-9999,-9999.0,SSW,8.1,-,N/A,,Unknown,200,2012-10-03 18:08:00
1:28 PM,82.9,49.1,31,-9999,-9999.0,South,8.1,-,N/A,,Unknown,170,2012-10-03 18:28:00
1:48 PM,84.0,48.0,28,-9999,-9999.0,South,16.1,-,N/A,,Unknown,170,2012-10-03 18:48:00
2:08 PM,84.0,49.1,30,-9999,-9999.0,SSE,9.2,-,N/A,,Unknown,150,2012-10-03 19:08:00
2:28 PM,84.9,48.0,28,-9999,-9999.0,SSE,13.8,-,N/A,,Unknown,160,2012-10-03 19:28:00
2:48 PM,84.9,49.1,29,-9999,-9999.0,South,13.8,-,N/A,,Unknown,170,2012-10-03 19:48:00
3:08 PM,84.9,47.1,27,-9999,-9999.0,South,11.5,-,N/A,,Unknown,180,2012-10-03 20:08:00
3:28 PM,86.0,47.1,26,-9999,-9999.0,South,12.7,-,N/A,,Unknown,190,2012-10-03 20:28:00
3:48 PM,86.0,47.1,26,-9999,-9999.0,South,12.7,-,N/A,,Unknown,170,2012-10-03 20:48:00
4:08 PM,86.0,46.0,25,-9999,-9999.0,South,13.8,-,N/A,,Unknown,190,2012-10-03 21:08:00
4:28 PM,86.0,46.0,25,-9999,-9999.0,South,13.8,-,N/A,,Unknown,180,2012-10-03 21:28:00
4:48 PM,87.1,48.0,26,-9999,-9999.0,SSE,13.8,-,N/A,,Unknown,160,2012-10-03 21:48:00
5:08 PM,86.0,48.0,27,-9999,-9999.0,SSE,17.3,-,N/A,,Unknown,160,2012-10-03 22:08:00
5:28 PM,86.0,47.1,26,-9999,-9999.0,SSE,21.9,-,N/A,,Unknown,160,2012-10-03 22:28:00
5:53 PM,84.9,47.1,27,-9999,-9999.0,South,20.7,-,N/A,,Unknown,170,2012-10-03 22:53:00
6:08 PM,84.0,47.1,28,-9999,-9999.0,South,15.0,-,N/A,,Unknown,170,2012-10-03 23:08:00
6:28 PM,82.9,47.1,29,-9999,-9999.0,SSE,15.0,-,N/A,,Unknown,160,2012-10-03 23:28:00
6:52 PM,81.0,48.0,31,-9999,-9999.0,SSE,12.7,-,N/A,,Unknown,160,2012-10-03 23:52:00
7:08 PM,79.0,47.1,32,-9999,-9999.0,SSE,13.8,-,N/A,,Unknown,150,2012-10-04 00:08:00
7:28 PM,75.0,48.0,38,-9999,-9999.0,SE,9.2,-,N/A,,Unknown,140,2012-10-04 00:28:00
7:48 PM,71.1,48.0,44,-9999,-9999.0,SSE,10.4,-,N/A,,Unknown,150,2012-10-04 00:48:00
8:08 PM,70.0,49.1,47,-9999,-9999.0,SSE,10.4,-,N/A,,Unknown,150,2012-10-04 01:08:00
8:28 PM,69.1,49.1,49,-9999,-9999.0,SSE,10.4,-,N/A,,Unknown,150,2012-10-04 01:28:00
8:48 PM,68.0,49.1,51,-9999,-9999.0,SSE,10.4,-,N/A,,Unknown,150,2012-10-04 01:48:00
9:08 PM,66.9,48.0,51,-9999,-9999.0,SSE,12.7,-,N/A,,Unknown,150,2012-10-04 02:08:00
9:28 PM,66.0,48.0,52,-9999,-9999.0,SSE,11.5,-,N/A,,Unknown,150,2012-10-04 02:28:00
9:48 PM,64.9,48.0,54,-9999,-9999.0,SSE,11.5,-,N/A,,Unknown,160,2012-10-04 02:48:00
10:08 PM,64.0,48.0,56,-9999,-9999.0,SSE,11.5,-,N/A,,Unknown,160,2012-10-04 03:08:00
10:28 PM,64.0,48.0,56,-9999,-9999.0,South,11.5,-,N/A,,Unknown,170,2012-10-04 03:28:00
10:48 PM,63.0,48.0,58,-9999,-9999.0,South,12.7,-,N/A,,Unknown,170,2012-10-04 03:48:00
11:08 PM,63.0,49.1,61,-9999,-9999.0,SSE,11.5,-,N/A,,Unknown,160,2012-10-04 04:08:00
11:28 PM,63.0,49.1,61,-9999,-9999.0,SSE,11.5,-,N/A,,Unknown,160,2012-10-04 04:28:00
11:48 PM,62.1,49.1,62,-9999,-9999.0,SSE,12.7,-,N/A,,Unknown,160,2012-10-04 04:48:00